Terminal Aerodrome Forecast
Issued by NWS Flagstaff, AZ

Home | Current Version | Previous Version | Text Only | Print | Product List | Glossary On
Versions: 1 2 3 4 5 6 7 8 9 10 11 12 13 14 15 16 17 18 19 20
000
FTUS45 KFGZ 281914 AAA
TAFFLG
TAF AMD
KFLG 281914Z 2819/2918 23015G25KT P6SM -SHSN OVC040
      TEMPO 2820/2824 3SM -SHSN BKN030
     FM290000 24012G20KT P6SM -SHRA OVC050
      TEMPO 2900/2903 -SHRASN OVC030
     FM290500 24005KT P6SM SCT050
     FM291400 23010G20KT P6SM SCT050=

USA.gov is the U.S. government's official web portal to all federal, state and local government web resources and services.